createdAt,value
2023-01-20T00:00:07.314Z,30.70
2023-01-20T00:02:34.226Z,35.10
2023-01-20T00:05:01.217Z,30.70
2023-01-20T00:07:28.151Z,39.67
2023-01-20T00:09:56.407Z,31.00
2023-01-20T00:12:23.361Z,25.53
2023-01-20T00:14:50.186Z,34.60
2023-01-20T00:17:17.083Z,26.33
2023-01-20T00:19:43.958Z,24.83
2023-01-20T00:22:10.781Z,22.87
2023-01-20T00:24:37.659Z,22.30
2023-01-20T00:27:06.153Z,27.43
2023-01-20T00:29:33.066Z,26.30
2023-01-20T00:31:59.885Z,26.50
2023-01-20T00:34:26.812Z,27.90
2023-01-20T00:36:53.663Z,26.77
2023-01-20T00:39:20.679Z,29.03
2023-01-20T00:41:47.497Z,27.73
2023-01-20T00:44:15.727Z,26.63
2023-01-20T00:46:42.691Z,26.27
2023-01-20T00:49:10.085Z,26.90
2023-01-20T00:51:37.026Z,29.13
2023-01-20T00:54:04.208Z,26.87
2023-01-20T00:56:31.107Z,29.10
2023-01-20T00:58:57.948Z,28.83
2023-01-20T01:01:26.199Z,27.07
2023-01-20T01:03:54.394Z,27.33
2023-01-20T01:06:21.308Z,28.97
2023-01-20T01:08:48.133Z,33.97
2023-01-20T01:11:15.128Z,35.47
2023-01-20T01:13:42.138Z,28.37
2023-01-20T01:16:12.541Z,27.63
2023-01-20T01:18:40.958Z,39.37
2023-01-20T01:21:09.582Z,43.03
2023-01-20T01:23:36.504Z,73.20
2023-01-20T01:26:03.478Z,33.37
2023-01-20T01:28:30.454Z,36.00
2023-01-20T01:31:00.755Z,36.87
2023-01-20T01:33:27.942Z,62.27
2023-01-20T01:35:57.391Z,37.80
2023-01-20T01:38:24.755Z,29.80
2023-01-20T01:40:52.873Z,38.90
2023-01-20T01:43:23.766Z,113.60
2023-01-20T01:45:50.737Z,36.57
2023-01-20T01:48:20.383Z,47.07
2023-01-20T01:50:51.794Z,34.97
2023-01-20T01:53:42.784Z,38.23
2023-01-20T01:56:11.469Z,48.67
2023-01-20T01:58:41.897Z,35.40
2023-01-20T02:01:09.983Z,29.80
2023-01-20T02:03:44.242Z,117.47
2023-01-20T02:06:12.709Z,120.33
2023-01-20T02:08:42.072Z,57.03
2023-01-20T02:11:08.870Z,29.60
2023-01-20T02:13:36.401Z,37.57
2023-01-20T02:16:11.321Z,35.50
2023-01-20T02:18:51.003Z,102.13
2023-01-20T02:22:00.402Z,103.17
2023-01-20T02:24:56.496Z,97.83
2023-01-20T02:27:32.643Z,50.50
2023-01-20T02:30:34.654Z,58.00
2023-01-20T02:33:09.604Z,62.33
2023-01-20T02:35:40.684Z,86.23
2023-01-20T02:38:16.114Z,168.60
2023-01-20T02:40:50.347Z,51.43
2023-01-20T02:43:23.242Z,42.00
2023-01-20T02:45:58.730Z,118.17
2023-01-20T02:48:35.175Z,75.70
2023-01-20T02:51:07.700Z,135.70
2023-01-20T02:53:40.365Z,40.40
2023-01-20T02:56:09.441Z,111.50
2023-01-20T02:58:42.161Z,116.43
2023-01-20T03:01:13.480Z,62.63
2023-01-20T03:03:44.867Z,121.80
2023-01-20T03:06:17.819Z,256.43
2023-01-20T03:08:46.648Z,111.37
2023-01-20T03:11:13.558Z,87.63
2023-01-20T03:13:44.655Z,233.20
2023-01-20T03:16:14.529Z,114.27
2023-01-20T03:18:42.856Z,38.90
2023-01-20T03:21:10.772Z,37.33
2023-01-20T03:23:41.989Z,48.70
2023-01-20T03:26:11.312Z,48.30
2023-01-20T03:28:38.253Z,44.93
2023-01-20T03:31:13.096Z,35.07
2023-01-20T03:33:40.048Z,40.73
2023-01-20T03:36:09.773Z,31.80
2023-01-20T03:38:36.889Z,29.20
2023-01-20T03:41:09.843Z,29.53
2023-01-20T03:43:43.540Z,45.87
2023-01-20T03:46:19.198Z,57.20
2023-01-20T03:48:50.893Z,46.47
2023-01-20T03:51:26.973Z,29.27
2023-01-20T03:53:59.694Z,31.87
2023-01-20T03:56:35.215Z,39.37
2023-01-20T03:59:03.576Z,34.37
2023-01-20T04:01:34.334Z,36.70
2023-01-20T04:04:03.103Z,34.33
2023-01-20T04:06:33.672Z,30.53
2023-01-20T04:09:04.743Z,31.83
2023-01-20T04:11:31.887Z,31.80
2023-01-20T04:13:58.931Z,35.10
2023-01-20T04:16:26.529Z,34.90
2023-01-20T04:18:54.136Z,54.93
2023-01-20T04:21:28.412Z,35.17
2023-01-20T04:24:00.684Z,32.10
2023-01-20T04:26:27.525Z,49.37
2023-01-20T04:28:54.351Z,86.87
2023-01-20T04:31:30.028Z,32.30
2023-01-20T04:33:58.251Z,32.53
2023-01-20T04:36:25.155Z,28.53
2023-01-20T04:38:52.045Z,37.03
2023-01-20T04:41:20.450Z,30.83
2023-01-20T04:43:47.353Z,33.40
2023-01-20T04:46:15.407Z,27.20
2023-01-20T04:48:43.984Z,28.93
2023-01-20T04:51:10.929Z,26.63
2023-01-20T04:53:37.760Z,27.53
2023-01-20T04:56:05.235Z,26.07
2023-01-20T04:58:33.469Z,30.20
2023-01-20T05:01:01.780Z,24.70
2023-01-20T05:03:28.723Z,27.03
2023-01-20T05:05:55.579Z,23.40
2023-01-20T05:08:22.506Z,24.83
2023-01-20T05:10:49.473Z,23.70
2023-01-20T05:13:16.358Z,25.17
2023-01-20T05:15:44.678Z,26.50
2023-01-20T05:18:11.705Z,28.13
2023-01-20T05:20:38.554Z,27.80
2023-01-20T05:23:05.577Z,29.00
2023-01-20T05:25:32.509Z,27.33
2023-01-20T05:28:00.577Z,25.03
2023-01-20T05:30:27.798Z,29.27
2023-01-20T05:32:56.155Z,23.33
2023-01-20T05:35:23.177Z,21.57
2023-01-20T05:37:53.430Z,25.93
2023-01-20T05:40:20.626Z,28.40
2023-01-20T05:42:47.493Z,22.07
2023-01-20T05:45:14.735Z,26.77
2023-01-20T05:47:41.783Z,24.30
2023-01-20T05:50:11.462Z,31.17
2023-01-20T05:52:38.452Z,26.60
2023-01-20T05:55:05.919Z,27.13
2023-01-20T05:57:32.811Z,29.53
2023-01-20T05:59:59.641Z,32.63
2023-01-20T06:02:26.615Z,26.40
2023-01-20T06:04:53.533Z,29.73
2023-01-20T06:07:21.778Z,27.33
2023-01-20T06:09:48.676Z,26.37
2023-01-20T06:12:15.741Z,28.87
2023-01-20T06:14:42.569Z,27.87
2023-01-20T06:17:10.859Z,31.80
2023-01-20T06:19:37.689Z,27.40
2023-01-20T06:22:04.614Z,35.80
2023-01-20T06:24:32.829Z,34.73
2023-01-20T06:26:59.635Z,24.90
2023-01-20T06:29:26.612Z,34.20
2023-01-20T06:31:53.563Z,33.07
2023-01-20T06:34:20.398Z,29.60
2023-01-20T06:36:47.208Z,29.73
2023-01-20T06:39:14.163Z,33.20
2023-01-20T06:41:42.285Z,30.50
2023-01-20T06:44:09.175Z,34.47
2023-01-20T06:46:36.105Z,32.90
2023-01-20T06:49:02.992Z,32.80
2023-01-20T06:51:31.017Z,38.07
2023-01-20T06:53:58.084Z,33.67
2023-01-20T06:56:25.146Z,31.00
2023-01-20T06:58:53.514Z,31.73
2023-01-20T07:01:23.250Z,31.07
2023-01-20T07:03:50.444Z,31.37
2023-01-20T07:06:20.337Z,33.60
2023-01-20T07:08:47.325Z,33.90
2023-01-20T07:11:14.278Z,29.93
2023-01-20T07:13:41.280Z,30.07
2023-01-20T07:16:11.974Z,32.90
2023-01-20T07:18:40.483Z,34.83
2023-01-20T07:21:07.805Z,33.43
2023-01-20T07:23:34.729Z,43.03
2023-01-20T07:26:03.683Z,33.70
2023-01-20T07:28:31.155Z,28.60
2023-01-20T07:31:03.851Z,29.00
2023-01-20T07:33:32.552Z,28.40
2023-01-20T07:36:00.218Z,36.13
2023-01-20T07:38:27.396Z,31.50
2023-01-20T07:40:57.412Z,35.80
2023-01-20T07:43:24.393Z,36.27
2023-01-20T07:45:54.950Z,34.20
2023-01-20T07:48:21.874Z,32.30
2023-01-20T07:50:54.162Z,32.27
2023-01-20T07:53:21.074Z,31.73
2023-01-20T07:55:47.944Z,33.57
2023-01-20T07:58:14.820Z,27.40
2023-01-20T08:00:41.801Z,29.53
2023-01-20T08:03:08.669Z,27.93
2023-01-20T08:05:35.484Z,33.03
2023-01-20T08:08:03.776Z,28.23
2023-01-20T08:10:30.791Z,32.20
2023-01-20T08:12:58.423Z,33.97
2023-01-20T08:15:25.343Z,29.13
2023-01-20T08:17:53.764Z,30.83
2023-01-20T08:20:20.643Z,30.80
2023-01-20T08:22:47.540Z,33.37
2023-01-20T08:25:16.458Z,30.07
2023-01-20T08:27:43.741Z,27.67
2023-01-20T08:30:11.721Z,27.63
2023-01-20T08:32:38.525Z,31.40
2023-01-20T08:35:05.878Z,27.50
2023-01-20T08:37:35.481Z,25.83
2023-01-20T08:40:02.322Z,28.53
2023-01-20T08:42:30.495Z,31.40
2023-01-20T08:44:57.383Z,32.60
2023-01-20T08:47:24.278Z,30.40
2023-01-20T08:49:52.877Z,29.43
2023-01-20T08:52:20.381Z,28.50
2023-01-20T08:54:47.532Z,31.77
2023-01-20T08:57:15.970Z,28.33
2023-01-20T08:59:44.343Z,30.33
2023-01-20T09:02:11.613Z,28.63
2023-01-20T09:04:39.163Z,26.20
2023-01-20T09:07:06.103Z,29.30
2023-01-20T09:09:33.211Z,30.10
2023-01-20T09:12:00.082Z,27.87
2023-01-20T09:14:27.150Z,29.47
2023-01-20T09:16:55.800Z,28.47
2023-01-20T09:19:23.144Z,31.07
2023-01-20T09:21:50.043Z,30.63
2023-01-20T09:24:17.092Z,32.43
2023-01-20T09:26:44.903Z,54.47
2023-01-20T09:29:13.431Z,37.03
2023-01-20T09:31:44.328Z,52.83
2023-01-20T09:34:19.189Z,46.63
2023-01-20T09:36:49.305Z,35.17
2023-01-20T09:39:35.308Z,34.57
2023-01-20T09:42:34.128Z,34.87
2023-01-20T09:45:10.476Z,38.97
2023-01-20T09:47:43.634Z,60.00
2023-01-20T09:50:53.104Z,43.33
2023-01-20T09:53:35.718Z,40.90
2023-01-20T09:56:08.787Z,49.20
2023-01-20T09:58:42.125Z,47.90
2023-01-20T10:01:15.634Z,41.77
2023-01-20T10:03:49.548Z,48.33
2023-01-20T10:06:25.005Z,42.30
2023-01-20T10:09:05.469Z,52.57
2023-01-20T10:11:38.832Z,47.90
2023-01-20T10:14:13.357Z,69.93
2023-01-20T10:16:45.570Z,50.90
2023-01-20T10:19:18.603Z,48.17
2023-01-20T10:21:53.104Z,45.37
2023-01-20T10:24:24.460Z,49.50
2023-01-20T10:26:57.093Z,51.27
2023-01-20T10:29:31.206Z,49.83
2023-01-20T10:32:01.163Z,50.63
2023-01-20T10:34:34.433Z,52.33
2023-01-20T10:37:06.825Z,51.57
2023-01-20T10:39:40.775Z,53.93
2023-01-20T10:42:12.810Z,59.70
2023-01-20T10:44:40.214Z,54.67
2023-01-20T10:47:18.319Z,53.87
2023-01-20T10:50:13.055Z,50.03
2023-01-20T10:53:03.727Z,59.37
2023-01-20T10:55:43.339Z,53.13
2023-01-20T10:58:21.276Z,45.67
2023-01-20T11:00:50.875Z,44.50
2023-01-20T11:03:22.101Z,52.77
2023-01-20T11:05:51.738Z,57.63
2023-01-20T11:08:30.863Z,49.53
2023-01-20T11:11:00.122Z,44.77
2023-01-20T11:13:27.525Z,47.27
2023-01-20T11:15:59.100Z,48.83
2023-01-20T11:18:29.968Z,50.93
2023-01-20T11:21:00.930Z,51.67
2023-01-20T11:23:38.984Z,50.77
2023-01-20T11:26:10.153Z,44.43
2023-01-20T11:28:49.517Z,53.60
2023-01-20T11:31:17.066Z,47.20
2023-01-20T11:33:56.259Z,42.50
2023-01-20T11:36:27.613Z,42.50
2023-01-20T11:38:57.507Z,37.53
2023-01-20T11:41:26.482Z,47.70
2023-01-20T11:43:56.672Z,42.70
2023-01-20T11:46:27.688Z,45.30
2023-01-20T11:49:16.803Z,45.83
2023-01-20T11:51:50.014Z,38.03
2023-01-20T11:54:21.420Z,42.23
2023-01-20T11:56:52.039Z,41.57
2023-01-20T11:59:27.016Z,40.50
2023-01-20T12:02:01.598Z,44.33
2023-01-20T12:04:49.055Z,46.10
2023-01-20T12:07:21.433Z,43.63
2023-01-20T12:09:52.944Z,41.80
2023-01-20T12:12:27.801Z,43.50
2023-01-20T12:15:00.742Z,42.33
2023-01-20T12:17:38.562Z,44.47
2023-01-20T12:20:16.841Z,41.40
2023-01-20T12:22:55.226Z,39.10
2023-01-20T12:25:28.151Z,41.17
2023-01-20T12:27:58.056Z,38.50
2023-01-20T12:30:53.752Z,41.30
2023-01-20T12:33:23.901Z,42.10
2023-01-20T12:36:40.441Z,36.47
2023-01-20T12:39:33.378Z,37.07
2023-01-20T12:42:46.112Z,38.90
2023-01-20T12:45:25.513Z,39.37
2023-01-20T12:48:10.461Z,37.37
2023-01-20T12:50:52.863Z,35.00
2023-01-20T12:53:38.941Z,35.13
2023-01-20T12:56:16.788Z,34.00
2023-01-20T12:58:53.265Z,34.13
2023-01-20T13:01:50.639Z,29.87
2023-01-20T13:04:49.826Z,35.28
2023-01-20T13:07:48.639Z,29.73
2023-01-20T13:10:42.604Z,33.40
2023-01-20T13:13:23.537Z,28.00
2023-01-20T13:15:58.638Z,35.60
2023-01-20T13:18:35.374Z,30.47
2023-01-20T13:21:02.747Z,26.63
2023-01-20T13:23:34.335Z,26.37
2023-01-20T13:26:03.759Z,27.70
2023-01-20T13:28:31.370Z,23.97
2023-01-20T13:31:00.450Z,29.97
2023-01-20T13:33:33.882Z,29.13
2023-01-20T13:36:01.916Z,22.30
2023-01-20T13:38:31.003Z,26.37
2023-01-20T13:41:03.270Z,23.63
2023-01-20T13:43:37.060Z,26.60
2023-01-20T13:46:43.990Z,27.67
2023-01-20T13:49:28.449Z,25.80
2023-01-20T13:51:55.837Z,24.30
2023-01-20T13:54:52.694Z,26.10
2023-01-20T13:57:36.274Z,28.17
2023-01-20T14:00:18.155Z,22.37
2023-01-20T14:02:46.444Z,25.70
2023-01-20T14:05:30.255Z,24.93
2023-01-20T14:07:57.784Z,29.07
2023-01-20T14:10:28.628Z,29.30
2023-01-20T14:12:55.599Z,25.97
2023-01-20T14:15:38.672Z,29.33
2023-01-20T14:18:14.019Z,27.43
2023-01-20T14:20:42.662Z,25.97
2023-01-20T14:23:31.565Z,31.17
2023-01-20T14:26:00.745Z,26.33
2023-01-20T14:28:27.756Z,30.07
2023-01-20T14:31:15.188Z,28.67
2023-01-20T14:33:47.766Z,31.03
2023-01-20T14:36:19.087Z,27.87
2023-01-20T14:38:57.375Z,31.43
2023-01-20T14:41:31.511Z,30.10
2023-01-20T14:43:59.727Z,29.63
2023-01-20T14:46:28.293Z,25.07
2023-01-20T14:48:56.296Z,34.43
2023-01-20T14:51:24.835Z,30.27
2023-01-20T14:54:32.585Z,27.43
2023-01-20T14:57:02.390Z,24.60
2023-01-20T14:59:29.421Z,24.37
2023-01-20T15:02:02.446Z,27.57
2023-01-20T15:04:36.736Z,33.53
2023-01-20T15:07:05.565Z,30.73
2023-01-20T15:09:34.444Z,27.90
2023-01-20T15:12:42.396Z,28.50
2023-01-20T15:15:21.881Z,28.07
2023-01-20T15:18:20.470Z,28.10
2023-01-20T15:20:50.251Z,33.30
2023-01-20T15:23:23.750Z,35.17
2023-01-20T15:25:52.521Z,39.30
2023-01-20T15:28:27.037Z,32.47
2023-01-20T15:30:56.196Z,32.33
2023-01-20T15:33:23.653Z,30.73
2023-01-20T15:35:54.747Z,28.10
2023-01-20T15:38:23.016Z,30.23
2023-01-20T15:40:50.087Z,25.17
2023-01-20T15:43:17.980Z,25.67
2023-01-20T15:45:45.587Z,30.63
2023-01-20T15:48:15.621Z,26.83
2023-01-20T15:50:43.035Z,24.50
2023-01-20T15:53:12.516Z,25.77
2023-01-20T15:55:47.718Z,28.60
2023-01-20T15:58:26.585Z,26.27
2023-01-20T16:00:55.386Z,28.33
2023-01-20T16:03:22.566Z,29.50
2023-01-20T16:05:50.052Z,34.93
2023-01-20T16:08:18.007Z,32.70
2023-01-20T16:10:46.600Z,31.00
2023-01-20T16:13:13.947Z,28.73
2023-01-20T16:15:44.974Z,26.13
2023-01-20T16:18:13.683Z,31.23
2023-01-20T16:20:40.783Z,26.57
2023-01-20T16:23:07.947Z,23.70
2023-01-20T16:25:35.201Z,29.80
2023-01-20T16:28:13.754Z,25.43
2023-01-20T16:30:41.527Z,23.23
2023-01-20T16:33:16.311Z,30.57
2023-01-20T16:35:43.353Z,27.27
2023-01-20T16:38:15.605Z,28.50
2023-01-20T16:40:46.913Z,28.40
2023-01-20T16:43:15.410Z,29.70
2023-01-20T16:45:42.608Z,29.57
2023-01-20T16:48:09.866Z,28.77
2023-01-20T16:50:37.180Z,26.30
2023-01-20T16:53:04.107Z,28.80
2023-01-20T16:55:31.222Z,30.00
2023-01-20T16:57:58.161Z,28.27
2023-01-20T17:00:26.616Z,30.43
2023-01-20T17:02:53.810Z,29.90
2023-01-20T17:05:25.663Z,28.30
2023-01-20T17:07:53.643Z,26.70
2023-01-20T17:10:20.872Z,29.83
2023-01-20T17:12:49.001Z,27.97
2023-01-20T17:15:16.060Z,28.20
2023-01-20T17:17:48.241Z,28.50
2023-01-20T17:20:15.722Z,35.67
2023-01-20T17:22:43.289Z,29.37
2023-01-20T17:25:11.112Z,28.83
2023-01-20T17:27:38.331Z,28.93
2023-01-20T17:30:08.019Z,28.83
2023-01-20T17:32:35.281Z,28.30
2023-01-20T17:35:04.208Z,27.37
2023-01-20T17:37:31.458Z,30.70
2023-01-20T17:40:00.399Z,27.10
2023-01-20T17:42:27.329Z,28.93
2023-01-20T17:44:54.243Z,27.23
2023-01-20T17:47:21.318Z,28.50
2023-01-20T17:49:48.655Z,27.23
2023-01-20T17:52:20.066Z,33.40
2023-01-20T17:54:46.941Z,29.17
2023-01-20T17:57:13.997Z,26.47
2023-01-20T17:59:40.896Z,26.97
2023-01-20T18:02:10.941Z,30.53
2023-01-20T18:04:37.873Z,24.67
2023-01-20T18:07:04.990Z,26.97
2023-01-20T18:09:33.745Z,26.47
2023-01-20T18:12:01.753Z,27.37
2023-01-20T18:14:28.605Z,30.33
2023-01-20T18:16:55.821Z,29.90
2023-01-20T18:19:23.621Z,34.47
2023-01-20T18:21:51.508Z,32.67
2023-01-20T18:24:18.655Z,28.90
2023-01-20T18:26:46.871Z,29.57
2023-01-20T18:29:15.115Z,28.47
2023-01-20T18:31:42.435Z,21.13
2023-01-20T18:34:15.741Z,19.93
2023-01-20T18:36:48.524Z,18.57
2023-01-20T18:39:20.413Z,17.43
2023-01-20T18:41:49.417Z,21.60
2023-01-20T18:44:16.567Z,22.37
2023-01-20T18:46:43.696Z,20.03
2023-01-20T18:49:13.023Z,20.50
2023-01-20T18:51:41.630Z,20.87
2023-01-20T18:54:11.630Z,19.63
2023-01-20T18:56:38.904Z,26.43
2023-01-20T18:59:07.699Z,26.13
2023-01-20T19:01:37.068Z,22.83
2023-01-20T19:04:05.825Z,22.57
2023-01-20T19:06:36.841Z,25.97
2023-01-20T19:09:04.801Z,28.10
2023-01-20T19:11:34.265Z,22.63
2023-01-20T19:14:01.475Z,26.63
2023-01-20T19:16:32.941Z,24.30
2023-01-20T19:19:02.569Z,28.57
2023-01-20T19:21:32.383Z,26.93
2023-01-20T19:24:01.628Z,25.47
2023-01-20T19:26:28.967Z,26.07
2023-01-20T19:28:58.245Z,26.87
2023-01-20T19:31:25.354Z,26.70
2023-01-20T19:33:53.968Z,25.20
2023-01-20T19:36:21.354Z,25.33
2023-01-20T19:38:48.354Z,30.27
2023-01-20T19:41:17.637Z,25.60
2023-01-20T19:43:45.423Z,26.40
2023-01-20T19:46:14.561Z,24.83
2023-01-20T19:48:41.980Z,24.20
2023-01-20T19:51:12.557Z,22.43
2023-01-20T19:53:40.247Z,22.57
2023-01-20T19:56:09.621Z,19.33
2023-01-20T19:58:37.075Z,23.00
2023-01-20T20:01:07.944Z,20.20
2023-01-20T20:03:34.980Z,22.73
2023-01-20T20:06:02.210Z,21.93
2023-01-20T20:08:30.546Z,21.00
2023-01-20T20:10:57.467Z,23.87
2023-01-20T20:13:24.417Z,21.03
2023-01-20T20:15:59.975Z,20.20
2023-01-20T20:18:27.120Z,19.43
2023-01-20T20:20:54.041Z,17.20
2023-01-20T20:23:21.099Z,20.27
2023-01-20T20:25:51.145Z,18.40
2023-01-20T20:28:18.885Z,18.23
2023-01-20T20:30:45.959Z,18.03
2023-01-20T20:33:12.955Z,15.43
2023-01-20T20:35:39.907Z,15.03
2023-01-20T20:38:06.747Z,11.27
2023-01-20T20:40:34.651Z,14.30
2023-01-20T20:43:02.952Z,16.53
2023-01-20T20:45:30.253Z,15.70
2023-01-20T20:47:57.463Z,17.27
2023-01-20T20:50:25.159Z,16.77
2023-01-20T20:52:52.863Z,16.53
2023-01-20T20:55:20.008Z,11.77
2023-01-20T20:57:46.936Z,14.23
2023-01-20T21:00:17.430Z,13.47
2023-01-20T21:02:45.081Z,20.93
2023-01-20T21:05:12.009Z,16.87
2023-01-20T21:07:38.902Z,19.37
2023-01-20T21:10:06.762Z,17.17
2023-01-20T21:12:33.586Z,17.47
2023-01-20T21:15:00.514Z,17.63
2023-01-20T21:17:28.930Z,18.30
2023-01-20T21:19:55.823Z,17.80
2023-01-20T21:22:22.780Z,15.63
2023-01-20T21:24:49.799Z,15.67
2023-01-20T21:27:16.724Z,15.30
2023-01-20T21:29:44.425Z,19.27
2023-01-20T21:32:11.394Z,15.67
2023-01-20T21:34:39.807Z,17.27
2023-01-20T21:37:08.540Z,16.80
2023-01-20T21:39:35.401Z,16.50
2023-01-20T21:42:02.369Z,19.10
2023-01-20T21:44:29.395Z,17.90
2023-01-20T21:46:57.147Z,18.60
2023-01-20T21:49:43.188Z,21.77
2023-01-20T21:52:32.659Z,23.33
2023-01-20T21:55:00.028Z,23.07
2023-01-20T21:57:29.125Z,20.63
2023-01-20T21:59:56.467Z,23.73
2023-01-20T22:02:23.759Z,24.60
2023-01-20T22:04:50.969Z,22.60
2023-01-20T22:07:19.807Z,24.93
2023-01-20T22:09:46.812Z,24.67
2023-01-20T22:12:13.979Z,22.70
2023-01-20T22:14:41.433Z,24.77
2023-01-20T22:17:10.055Z,25.37
2023-01-20T22:19:37.418Z,27.80
2023-01-20T22:22:05.058Z,21.97
2023-01-20T22:24:33.399Z,27.63
2023-01-20T22:27:01.583Z,25.33
2023-01-20T22:29:28.663Z,26.00
2023-01-20T22:31:57.455Z,23.87
2023-01-20T22:34:24.629Z,22.77
2023-01-20T22:36:51.536Z,22.20
2023-01-20T22:39:18.557Z,22.73
2023-01-20T22:41:46.762Z,20.60
2023-01-20T22:44:13.998Z,23.17
2023-01-20T22:46:40.943Z,20.13
2023-01-20T22:49:08.865Z,21.43
2023-01-20T22:51:35.751Z,25.03
2023-01-20T22:54:02.797Z,20.67
2023-01-20T22:56:30.997Z,20.27
2023-01-20T22:59:00.228Z,19.03
2023-01-20T23:01:29.607Z,20.17
2023-01-20T23:03:58.027Z,18.63
2023-01-20T23:06:26.724Z,18.83
2023-01-20T23:08:53.922Z,21.70
2023-01-20T23:11:23.084Z,23.63
2023-01-20T23:13:50.261Z,22.17
2023-01-20T23:16:22.134Z,23.47
2023-01-20T23:18:49.626Z,21.20
2023-01-20T23:21:16.667Z,22.63
2023-01-20T23:23:43.773Z,24.53
2023-01-20T23:26:14.228Z,23.57
2023-01-20T23:28:41.881Z,22.73
2023-01-20T23:31:10.865Z,20.17
2023-01-20T23:33:40.840Z,21.50
2023-01-20T23:36:23.863Z,19.90
2023-01-20T23:38:57.969Z,20.47
2023-01-20T23:41:25.501Z,20.90
2023-01-20T23:43:52.774Z,20.23
2023-01-20T23:46:19.748Z,21.93
2023-01-20T23:48:48.066Z,21.63
2023-01-20T23:51:15.336Z,21.10
2023-01-20T23:53:42.512Z,17.90
2023-01-20T23:56:12.822Z,25.20
2023-01-20T23:58:40.163Z,21.57
